createdAt,value
2017-12-06T00:01:28.955Z,5.50
2017-12-06T00:03:56.440Z,5.50
2017-12-06T00:06:24.707Z,5.40
2017-12-06T00:08:52.196Z,5.40
2017-12-06T00:11:20.469Z,5.50
2017-12-06T00:13:54.311Z,5.50
2017-12-06T00:16:22.588Z,5.60
2017-12-06T00:18:50.840Z,5.50
2017-12-06T00:21:18.356Z,5.50
2017-12-06T00:23:46.619Z,5.50
2017-12-06T00:26:14.148Z,5.40
2017-12-06T00:28:41.628Z,5.50
2017-12-06T00:31:09.136Z,5.50
2017-12-06T00:33:37.391Z,5.50
2017-12-06T00:36:04.900Z,5.40
2017-12-06T00:38:32.387Z,5.50
2017-12-06T00:40:59.903Z,5.50
2017-12-06T00:43:27.383Z,5.40
2017-12-06T00:45:54.892Z,5.40
2017-12-06T00:48:23.135Z,5.40
2017-12-06T00:50:50.631Z,5.40
2017-12-06T00:53:18.125Z,5.40
2017-12-06T00:55:46.392Z,5.30
2017-12-06T00:58:13.885Z,5.30
2017-12-06T01:00:46.140Z,5.30
2017-12-06T01:03:13.619Z,5.30
2017-12-06T01:05:41.871Z,5.40
2017-12-06T01:08:09.371Z,5.40
2017-12-06T01:10:36.851Z,5.40
2017-12-06T01:13:05.128Z,5.30
2017-12-06T01:15:32.611Z,5.30
2017-12-06T01:18:00.882Z,5.40
2017-12-06T01:20:28.374Z,5.30
2017-12-06T01:22:56.654Z,5.40
2017-12-06T01:25:24.894Z,5.40
2017-12-06T01:27:52.396Z,5.30
2017-12-06T01:30:19.974Z,5.50
2017-12-06T01:32:47.488Z,5.50
2017-12-06T01:35:14.973Z,5.50
2017-12-06T01:37:42.475Z,5.50
2017-12-06T01:40:09.956Z,5.40
2017-12-06T01:42:37.458Z,5.40
2017-12-06T01:45:04.941Z,5.30
2017-12-06T01:47:32.442Z,5.30
2017-12-06T01:49:59.915Z,5.40
2017-12-06T01:52:27.424Z,5.30
2017-12-06T01:54:55.680Z,5.30
2017-12-06T01:57:23.187Z,5.30
2017-12-06T01:59:51.431Z,5.30
2017-12-06T02:02:18.931Z,5.20
2017-12-06T02:04:47.189Z,5.30
2017-12-06T02:07:14.684Z,5.20
2017-12-06T02:09:42.190Z,5.20
2017-12-06T02:12:09.688Z,5.30
2017-12-06T02:14:37.192Z,5.30
2017-12-06T02:17:05.443Z,5.30
2017-12-06T02:19:32.942Z,5.30
2017-12-06T02:22:00.434Z,5.30
2017-12-06T02:24:27.943Z,5.30
2017-12-06T02:26:55.423Z,5.30
2017-12-06T02:29:22.923Z,5.30
2017-12-06T02:31:50.402Z,5.30
2017-12-06T02:34:17.912Z,5.30
2017-12-06T02:36:45.400Z,5.40
2017-12-06T02:39:12.900Z,5.30
2017-12-06T02:41:52.259Z,5.20
2017-12-06T02:44:31.477Z,5.30
2017-12-06T02:46:58.963Z,5.30
2017-12-06T02:49:26.471Z,5.30
2017-12-06T02:51:54.723Z,5.30
2017-12-06T02:54:22.223Z,5.30
2017-12-06T02:56:50.484Z,5.30
2017-12-06T02:59:17.979Z,5.30
2017-12-06T03:01:45.464Z,5.30
2017-12-06T03:04:12.958Z,5.30
2017-12-06T03:06:40.435Z,5.30
2017-12-06T03:09:07.947Z,5.30
2017-12-06T03:11:35.441Z,5.30
2017-12-06T03:14:02.927Z,5.30
2017-12-06T03:16:30.436Z,5.30
2017-12-06T03:18:57.927Z,5.30
2017-12-06T03:21:26.204Z,5.30
2017-12-06T03:23:53.684Z,5.30
2017-12-06T03:26:21.188Z,5.30
2017-12-06T03:28:48.672Z,5.40
2017-12-06T03:31:16.173Z,5.30
2017-12-06T03:33:43.662Z,5.30
2017-12-06T03:36:11.164Z,5.30
2017-12-06T03:38:38.649Z,5.30
2017-12-06T03:41:06.157Z,5.30
2017-12-06T03:43:33.644Z,5.30
2017-12-06T03:46:01.156Z,5.40
2017-12-06T03:48:28.656Z,5.40
2017-12-06T03:50:56.163Z,5.40
2017-12-06T03:53:24.412Z,5.30
2017-12-06T03:55:51.916Z,5.30
2017-12-06T03:58:19.391Z,5.30
2017-12-06T04:00:47.659Z,5.40
2017-12-06T04:03:15.143Z,5.30
2017-12-06T04:05:42.644Z,5.40
2017-12-06T04:08:10.122Z,5.50
2017-12-06T04:10:37.632Z,5.40
2017-12-06T04:13:05.136Z,5.40
2017-12-06T04:15:33.395Z,5.40
2017-12-06T04:18:00.895Z,5.40
2017-12-06T04:20:29.139Z,5.40
2017-12-06T04:22:56.635Z,5.40
2017-12-06T04:25:24.117Z,5.40
2017-12-06T04:27:52.387Z,5.50
2017-12-06T04:30:19.873Z,5.40
2017-12-06T04:32:48.139Z,5.50
2017-12-06T04:35:15.623Z,5.40
2017-12-06T04:37:43.119Z,5.50
2017-12-06T04:40:10.604Z,5.50
2017-12-06T04:42:38.099Z,5.40
2017-12-06T04:45:05.574Z,5.40
2017-12-06T04:47:33.083Z,5.40
2017-12-06T04:50:01.328Z,5.40
2017-12-06T04:52:28.829Z,5.30
2017-12-06T04:54:56.316Z,5.40
2017-12-06T04:57:23.831Z,5.40
2017-12-06T04:59:51.316Z,5.40
2017-12-06T05:02:18.816Z,5.40
2017-12-06T05:04:47.098Z,5.40
2017-12-06T05:07:14.600Z,5.30
2017-12-06T05:09:42.091Z,5.40
2017-12-06T05:12:09.584Z,5.40
2017-12-06T05:14:37.121Z,5.40
2017-12-06T05:17:04.595Z,5.30
2017-12-06T05:19:32.100Z,5.40
2017-12-06T05:21:59.583Z,5.40
2017-12-06T05:24:27.412Z,5.40
2017-12-06T05:26:54.895Z,5.40
2017-12-06T05:29:22.415Z,5.40
2017-12-06T05:31:49.903Z,5.40
2017-12-06T05:34:18.551Z,5.40
2017-12-06T05:36:46.039Z,5.40
2017-12-06T05:39:13.532Z,5.40
2017-12-06T05:41:41.783Z,5.50
2017-12-06T05:44:09.292Z,5.40
2017-12-06T05:46:37.544Z,5.40
2017-12-06T05:49:05.047Z,5.40
2017-12-06T05:51:33.291Z,5.40
2017-12-06T05:54:00.786Z,5.30
2017-12-06T05:56:28.273Z,5.40
2017-12-06T05:58:56.546Z,5.40
2017-12-06T06:01:24.090Z,5.40
2017-12-06T06:03:51.555Z,5.40
2017-12-06T06:06:19.037Z,5.40
2017-12-06T06:08:46.564Z,5.50
2017-12-06T06:11:14.053Z,5.50
2017-12-06T06:13:41.540Z,5.50
2017-12-06T06:16:09.035Z,5.50
2017-12-06T06:18:36.523Z,5.50
2017-12-06T06:21:04.787Z,5.50
2017-12-06T06:23:32.263Z,5.50
2017-12-06T06:25:59.763Z,5.50
2017-12-06T06:28:28.020Z,5.50
2017-12-06T06:30:55.516Z,5.50
2017-12-06T06:33:23.767Z,5.50
2017-12-06T06:35:51.267Z,5.50
2017-12-06T06:38:19.532Z,5.50
2017-12-06T06:40:47.039Z,5.50
2017-12-06T06:43:14.532Z,5.50
2017-12-06T06:45:42.042Z,5.50
2017-12-06T06:48:09.523Z,5.50
2017-12-06T06:50:37.072Z,5.50
2017-12-06T06:53:04.527Z,5.50
2017-12-06T06:55:32.027Z,5.50
2017-12-06T06:57:59.516Z,5.50
2017-12-06T07:00:27.779Z,5.40
2017-12-06T07:02:55.264Z,5.40
2017-12-06T07:05:22.767Z,5.40
2017-12-06T07:07:50.247Z,5.40
2017-12-06T07:10:17.760Z,5.50
2017-12-06T07:12:45.240Z,5.50
2017-12-06T07:15:12.985Z,5.50
2017-12-06T07:17:40.483Z,5.40
2017-12-06T07:20:07.963Z,5.50
2017-12-06T07:22:36.231Z,5.50
2017-12-06T07:25:03.711Z,5.40
2017-12-06T07:27:31.212Z,5.50
2017-12-06T07:29:59.451Z,5.40
2017-12-06T07:32:26.952Z,5.40
2017-12-06T07:34:54.444Z,5.40
2017-12-06T07:37:21.940Z,5.50
2017-12-06T07:39:50.191Z,5.50
2017-12-06T07:42:18.456Z,5.40
2017-12-06T07:44:45.946Z,5.40
2017-12-06T07:47:14.228Z,5.50
2017-12-06T07:49:41.707Z,5.40
2017-12-06T07:52:09.975Z,5.30
2017-12-06T07:54:37.464Z,5.30
2017-12-06T07:57:05.728Z,5.40
2017-12-06T07:59:33.212Z,5.30
2017-12-06T08:02:00.708Z,5.30
2017-12-06T08:04:28.196Z,5.20
2017-12-06T08:06:55.707Z,5.20
2017-12-06T08:09:23.188Z,5.30
2017-12-06T08:11:50.678Z,5.30
2017-12-06T08:14:18.956Z,5.30
2017-12-06T08:16:47.211Z,5.30
2017-12-06T08:19:14.720Z,5.30
2017-12-06T08:21:42.972Z,5.30
2017-12-06T08:24:10.472Z,5.20
2017-12-06T08:26:38.748Z,5.30
2017-12-06T08:29:06.227Z,5.30
2017-12-06T08:31:34.495Z,5.30
2017-12-06T08:34:01.980Z,5.30
2017-12-06T08:36:29.489Z,5.40
2017-12-06T08:38:56.967Z,5.40
2017-12-06T08:41:24.468Z,5.40
2017-12-06T08:43:51.951Z,5.40
2017-12-06T08:46:19.464Z,5.40
2017-12-06T08:48:46.949Z,5.30
2017-12-06T08:51:15.215Z,5.30
2017-12-06T08:53:42.699Z,5.30
2017-12-06T08:56:10.202Z,5.40
2017-12-06T08:58:37.720Z,5.40
2017-12-06T09:01:05.211Z,5.40
2017-12-06T09:03:33.472Z,5.40
2017-12-06T09:06:01.745Z,5.40
2017-12-06T09:08:29.999Z,5.40
2017-12-06T09:10:57.487Z,5.40
2017-12-06T09:13:24.988Z,5.40
2017-12-06T09:15:53.239Z,5.50
2017-12-06T09:18:20.744Z,5.40
2017-12-06T09:20:49.011Z,5.50
2017-12-06T09:23:16.523Z,5.40
2017-12-06T09:25:44.016Z,5.50
2017-12-06T09:28:11.511Z,5.50
2017-12-06T09:30:38.990Z,5.50
2017-12-06T09:33:06.502Z,5.50
2017-12-06T09:35:33.975Z,5.50
2017-12-06T09:38:01.479Z,5.50
2017-12-06T09:40:28.968Z,5.60
2017-12-06T09:42:56.468Z,5.60
2017-12-06T09:45:24.719Z,5.60
2017-12-06T09:47:52.220Z,5.60
2017-12-06T09:50:20.495Z,5.60
2017-12-06T09:52:48.004Z,5.60
2017-12-06T09:55:15.483Z,5.70
2017-12-06T09:57:42.984Z,5.70
2017-12-06T10:00:10.477Z,5.70
2017-12-06T10:02:37.972Z,5.70
2017-12-06T10:05:05.454Z,5.70
2017-12-06T10:07:32.952Z,5.70
2017-12-06T10:10:00.431Z,5.70
2017-12-06T10:12:27.947Z,5.70
2017-12-06T10:14:56.204Z,5.70
2017-12-06T10:17:23.704Z,5.70
2017-12-06T10:19:51.951Z,5.70
2017-12-06T10:22:19.430Z,5.60
2017-12-06T10:24:46.932Z,5.60
2017-12-06T10:27:15.176Z,5.70
2017-12-06T10:29:42.707Z,5.70
2017-12-06T10:32:10.191Z,5.70
2017-12-06T10:34:37.714Z,5.80
2017-12-06T10:37:05.978Z,5.90
2017-12-06T10:39:33.480Z,5.80
2017-12-06T10:42:01.723Z,5.90
2017-12-06T10:44:29.228Z,5.80
2017-12-06T10:46:56.715Z,5.90
2017-12-06T10:49:24.992Z,5.80
2017-12-06T10:51:53.116Z,5.70
2017-12-06T10:54:20.620Z,5.80
2017-12-06T10:56:49.586Z,5.70
2017-12-06T10:59:17.164Z,5.70
2017-12-06T11:01:44.655Z,5.70
2017-12-06T11:04:12.159Z,5.70
2017-12-06T11:06:39.648Z,5.60
2017-12-06T11:09:07.916Z,5.70
2017-12-06T11:11:35.420Z,5.60
2017-12-06T11:14:03.692Z,5.70
2017-12-06T11:16:31.944Z,5.70
2017-12-06T11:18:59.448Z,5.60
2017-12-06T11:21:27.695Z,5.70
2017-12-06T11:23:55.179Z,5.70
2017-12-06T11:26:22.696Z,5.80
2017-12-06T11:28:50.178Z,5.70
2017-12-06T11:31:17.959Z,5.70
2017-12-06T11:33:45.472Z,5.70
2017-12-06T11:36:12.969Z,5.70
2017-12-06T11:38:41.240Z,5.80
2017-12-06T11:41:08.747Z,5.70
2017-12-06T11:43:36.247Z,5.70
2017-12-06T11:46:03.852Z,5.80
2017-12-06T11:48:31.336Z,5.80
2017-12-06T11:50:59.612Z,5.70
2017-12-06T11:53:27.091Z,5.70
2017-12-06T11:55:54.599Z,5.80
2017-12-06T11:58:22.847Z,5.90
2017-12-06T12:00:51.127Z,5.90
2017-12-06T12:03:18.612Z,5.80
2017-12-06T12:05:46.880Z,5.90
2017-12-06T12:08:14.360Z,5.80
2017-12-06T12:10:41.862Z,5.90
2017-12-06T12:13:09.358Z,5.90
2017-12-06T12:15:36.863Z,5.90
2017-12-06T12:18:04.351Z,5.90
2017-12-06T12:20:32.623Z,5.90
2017-12-06T12:23:00.110Z,5.90
2017-12-06T12:25:28.356Z,5.70
2017-12-06T12:27:55.874Z,5.70
2017-12-06T12:30:24.219Z,5.80
2017-12-06T12:32:51.791Z,5.70
2017-12-06T12:35:19.673Z,5.80
2017-12-06T12:37:47.176Z,5.70
2017-12-06T12:40:15.424Z,5.80
2017-12-06T12:42:43.628Z,5.70
2017-12-06T12:45:11.131Z,5.70
2017-12-06T12:47:39.395Z,5.80
2017-12-06T12:50:06.876Z,5.70
2017-12-06T12:52:35.155Z,5.80
2017-12-06T12:55:02.649Z,5.70
2017-12-06T12:57:30.171Z,5.90
2017-12-06T12:59:57.684Z,5.90
2017-12-06T13:02:25.971Z,5.80
2017-12-06T13:04:54.223Z,5.90
2017-12-06T13:07:21.719Z,5.80
2017-12-06T13:09:49.964Z,5.90
2017-12-06T13:12:17.476Z,5.90
2017-12-06T13:14:44.965Z,5.90
2017-12-06T13:17:12.615Z,6.00
2017-12-06T13:19:40.103Z,5.90
2017-12-06T13:22:08.376Z,6.00
2017-12-06T13:24:36.627Z,5.90
2017-12-06T13:27:04.115Z,5.90
2017-12-06T13:29:31.632Z,5.90
2017-12-06T13:31:59.117Z,5.90
2017-12-06T13:34:26.620Z,5.90
2017-12-06T13:36:54.096Z,5.80
2017-12-06T13:39:21.603Z,5.80
2017-12-06T13:41:49.097Z,5.80
2017-12-06T13:44:16.595Z,5.90
2017-12-06T13:46:44.080Z,5.90
2017-12-06T13:49:11.588Z,5.90
2017-12-06T13:51:39.095Z,5.90
2017-12-06T13:54:06.610Z,5.90
2017-12-06T13:56:34.871Z,5.90
2017-12-06T13:59:02.371Z,5.90
2017-12-06T14:01:30.627Z,6.00
2017-12-06T14:03:58.131Z,6.00
2017-12-06T14:06:26.380Z,6.00
2017-12-06T14:08:53.885Z,6.00
2017-12-06T14:11:22.135Z,6.00
2017-12-06T14:13:49.640Z,6.00
2017-12-06T14:16:17.888Z,5.90
2017-12-06T14:18:45.396Z,5.90
2017-12-06T14:21:13.684Z,6.00
2017-12-06T14:23:41.167Z,5.90
2017-12-06T14:26:09.444Z,5.90
2017-12-06T14:28:37.691Z,5.90
2017-12-06T14:31:05.200Z,5.90
2017-12-06T14:33:33.480Z,5.90
2017-12-06T14:36:00.991Z,5.80
2017-12-06T14:38:28.482Z,5.90
2017-12-06T14:40:55.996Z,5.90
2017-12-06T14:43:23.477Z,5.90
2017-12-06T14:45:51.048Z,5.90
2017-12-06T14:48:19.316Z,6.00
2017-12-06T14:50:46.813Z,5.90
2017-12-06T14:53:15.072Z,5.90
2017-12-06T14:55:42.601Z,5.80
2017-12-06T14:58:10.092Z,5.90
2017-12-06T15:00:37.600Z,5.80
2017-12-06T15:03:05.848Z,5.90
2017-12-06T15:05:33.380Z,5.80
2017-12-06T15:08:00.860Z,5.90
2017-12-06T15:10:28.367Z,5.90
2017-12-06T15:12:55.848Z,5.80
2017-12-06T15:15:23.363Z,5.80
2017-12-06T15:17:50.851Z,5.80
2017-12-06T15:20:18.404Z,5.80
2017-12-06T15:22:45.895Z,5.80
2017-12-06T15:25:13.404Z,5.70
2017-12-06T15:27:40.897Z,5.80
2017-12-06T15:30:09.173Z,5.70
2017-12-06T15:32:36.651Z,5.70
2017-12-06T15:35:04.904Z,5.80
2017-12-06T15:37:32.407Z,5.80
2017-12-06T15:40:00.667Z,5.80
2017-12-06T15:42:28.171Z,5.80
2017-12-06T15:44:56.883Z,5.80
2017-12-06T15:47:24.330Z,5.70
2017-12-06T15:49:51.852Z,5.80
2017-12-06T15:52:19.352Z,5.80
2017-12-06T15:54:46.839Z,5.80
2017-12-06T15:57:14.343Z,5.80
2017-12-06T15:59:41.824Z,5.90
2017-12-06T16:02:09.337Z,5.90
2017-12-06T16:04:36.820Z,5.80
2017-12-06T16:07:04.330Z,5.80
2017-12-06T16:09:31.807Z,5.80
2017-12-06T16:11:59.318Z,5.80
2017-12-06T16:14:26.805Z,5.70
2017-12-06T16:16:55.072Z,5.80
2017-12-06T16:19:22.555Z,5.80
2017-12-06T16:21:50.059Z,5.70
2017-12-06T16:24:17.540Z,5.80
2017-12-06T16:26:45.032Z,5.80
2017-12-06T16:29:12.531Z,5.60
2017-12-06T16:31:40.017Z,5.70
2017-12-06T16:34:08.290Z,5.70
2017-12-06T16:36:47.480Z,5.70
2017-12-06T16:39:14.984Z,5.60
2017-12-06T16:41:42.479Z,5.70
2017-12-06T16:44:09.981Z,5.70
2017-12-06T16:46:37.483Z,5.70
2017-12-06T16:49:04.984Z,5.70
2017-12-06T16:51:32.467Z,5.70
2017-12-06T16:53:59.973Z,5.60
2017-12-06T16:56:27.456Z,5.60
2017-12-06T16:58:54.963Z,5.60
2017-12-06T17:01:22.447Z,5.70
2017-12-06T17:03:49.966Z,5.70
2017-12-06T17:06:17.457Z,5.70
2017-12-06T17:08:44.968Z,5.60
2017-12-06T17:11:13.209Z,5.60
2017-12-06T17:13:40.708Z,5.50
2017-12-06T17:16:08.192Z,5.50
2017-12-06T17:18:36.465Z,5.60
2017-12-06T17:21:03.955Z,5.50
2017-12-06T17:23:32.224Z,5.50
2017-12-06T17:25:59.704Z,5.50
2017-12-06T17:31:45.324Z,5.50
2017-12-06T17:34:12.832Z,5.50
2017-12-06T17:36:40.339Z,5.50
2017-12-06T17:39:07.835Z,5.60
2017-12-06T17:41:35.419Z,5.50
2017-12-06T17:44:02.848Z,5.50
2017-12-06T17:46:30.355Z,5.50
2017-12-06T17:48:57.909Z,5.50
2017-12-06T17:51:25.415Z,5.50
2017-12-06T17:53:53.659Z,5.50
2017-12-06T17:56:21.155Z,5.50
2017-12-06T17:58:48.631Z,5.50
2017-12-06T18:01:16.889Z,5.60
2017-12-06T18:03:44.377Z,5.50
2017-12-06T18:06:11.881Z,5.50
2017-12-06T18:08:39.368Z,5.60
2017-12-06T18:11:06.872Z,5.60
2017-12-06T18:13:34.347Z,5.60
2017-12-06T18:16:01.850Z,5.60
2017-12-06T18:18:30.096Z,5.60
2017-12-06T18:20:57.602Z,5.60
2017-12-06T18:23:25.115Z,5.60
2017-12-06T18:25:52.636Z,5.70
2017-12-06T18:28:20.905Z,5.60
2017-12-06T18:30:48.433Z,5.60
2017-12-06T18:33:15.929Z,5.60
2017-12-06T18:35:43.419Z,5.50
2017-12-06T18:38:10.900Z,5.50
2017-12-06T18:40:39.167Z,5.50
2017-12-06T18:43:06.649Z,5.50
2017-12-06T18:45:34.159Z,5.50
2017-12-06T18:48:01.651Z,5.50
2017-12-06T18:50:29.132Z,5.50
2017-12-06T18:52:56.627Z,5.50
2017-12-06T18:55:24.107Z,5.40
2017-12-06T18:57:51.608Z,5.50
2017-12-06T19:00:22.940Z,5.50
2017-12-06T19:02:50.446Z,5.60
2017-12-06T19:05:17.919Z,5.60
2017-12-06T19:07:45.422Z,5.60
2017-12-06T19:10:12.919Z,5.50
2017-12-06T19:12:40.420Z,5.50
2017-12-06T19:15:07.908Z,5.40
2017-12-06T19:17:35.412Z,5.50
2017-12-06T19:20:02.894Z,5.50
2017-12-06T19:22:30.415Z,5.60
2017-12-06T19:24:57.907Z,5.60
2017-12-06T19:27:25.419Z,5.60
2017-12-06T19:29:53.672Z,5.60
2017-12-06T19:32:21.187Z,5.60
2017-12-06T19:34:49.427Z,5.60
2017-12-06T19:37:16.930Z,5.60
2017-12-06T19:39:44.403Z,5.70
2017-12-06T19:42:11.900Z,5.70
2017-12-06T19:44:39.389Z,5.70
2017-12-06T19:47:06.907Z,5.60
2017-12-06T19:49:34.392Z,5.60
2017-12-06T19:52:02.640Z,5.60
2017-12-06T19:54:30.163Z,5.60
2017-12-06T19:56:58.110Z,5.60
2017-12-06T19:59:25.862Z,5.60
2017-12-06T20:01:53.343Z,5.50
2017-12-06T20:04:20.842Z,5.50
2017-12-06T20:06:48.332Z,5.50
2017-12-06T20:09:15.835Z,5.50
2017-12-06T20:11:43.331Z,5.60
2017-12-06T20:14:10.832Z,5.50
2017-12-06T20:16:39.082Z,5.50
2017-12-06T20:19:06.600Z,5.50
2017-12-06T20:21:34.083Z,5.50
2017-12-06T20:24:01.596Z,5.40
2017-12-06T20:26:29.092Z,5.50
2017-12-06T20:28:57.739Z,5.50
2017-12-06T20:31:25.736Z,5.50
2017-12-06T20:33:53.231Z,5.50
2017-12-06T20:36:21.482Z,5.50
2017-12-06T20:38:48.982Z,5.40
2017-12-06T20:41:16.469Z,5.50
2017-12-06T20:43:44.748Z,5.50
2017-12-06T20:46:12.232Z,5.40
2017-12-06T20:48:40.507Z,5.50
2017-12-06T20:51:07.983Z,5.50
2017-12-06T20:53:36.259Z,5.60
2017-12-06T20:56:03.750Z,5.50
2017-12-06T20:58:31.696Z,5.50
2017-12-06T21:00:59.213Z,5.60
2017-12-06T21:03:26.722Z,5.60
2017-12-06T21:05:55.115Z,5.60
2017-12-06T21:08:22.631Z,5.60
2017-12-06T21:10:50.888Z,5.50
2017-12-06T21:13:18.383Z,5.50
2017-12-06T21:15:45.895Z,5.50
2017-12-06T21:18:13.749Z,5.60
2017-12-06T21:20:42.020Z,5.50
2017-12-06T21:23:09.495Z,5.50
2017-12-06T21:25:37.760Z,5.50
2017-12-06T21:28:05.240Z,5.50
2017-12-06T21:30:32.743Z,5.50
2017-12-06T21:33:00.224Z,5.50
2017-12-06T21:35:27.727Z,5.50
2017-12-06T21:37:55.215Z,5.50
2017-12-06T21:40:22.716Z,5.50
2017-12-06T21:42:50.956Z,5.50
2017-12-06T21:45:18.452Z,5.50
2017-12-06T21:47:45.922Z,5.50
2017-12-06T21:50:13.429Z,5.50
2017-12-06T21:52:40.908Z,5.50
2017-12-06T21:55:08.407Z,5.50
2017-12-06T21:57:35.885Z,5.50
2017-12-06T22:00:03.418Z,5.50
2017-12-06T22:02:30.908Z,5.50
2017-12-06T22:05:03.309Z,5.50
2017-12-06T22:07:30.803Z,5.40
2017-12-06T22:09:59.166Z,5.40
2017-12-06T22:12:26.661Z,5.40
2017-12-06T22:14:54.923Z,5.40
2017-12-06T22:17:22.434Z,5.30
2017-12-06T22:19:50.708Z,5.30
2017-12-06T22:22:18.203Z,5.30
2017-12-06T22:24:45.692Z,5.30
2017-12-06T22:27:13.202Z,5.30
2017-12-06T22:29:40.691Z,5.30
2017-12-06T22:32:08.964Z,5.30
2017-12-06T22:34:36.442Z,5.30
2017-12-06T22:37:03.947Z,5.30
2017-12-06T22:39:31.440Z,5.30
2017-12-06T22:41:58.931Z,5.20
2017-12-06T22:44:26.421Z,5.20
2017-12-06T22:46:53.931Z,5.20
2017-12-06T22:49:21.416Z,5.20
2017-12-06T22:51:48.919Z,5.10
2017-12-06T22:54:16.412Z,5.20
2017-12-06T22:56:44.684Z,5.10
2017-12-06T22:59:12.165Z,5.10
2017-12-06T23:01:39.674Z,5.00
2017-12-06T23:04:07.160Z,5.00
2017-12-06T23:06:34.664Z,5.00
2017-12-06T23:09:02.149Z,5.00
2017-12-06T23:11:29.651Z,5.00
2017-12-06T23:13:57.140Z,5.00
2017-12-06T23:16:24.619Z,5.00
2017-12-06T23:18:52.118Z,5.10
2017-12-06T23:21:19.600Z,5.00
2017-12-06T23:23:47.867Z,5.10
2017-12-06T23:26:15.348Z,5.10
2017-12-06T23:28:43.637Z,5.00
2017-12-06T23:31:11.115Z,5.00
2017-12-06T23:33:38.626Z,5.00
2017-12-06T23:36:06.102Z,5.00
2017-12-06T23:38:33.604Z,5.00
2017-12-06T23:41:01.091Z,5.00
2017-12-06T23:43:28.589Z,5.00
2017-12-06T23:45:56.083Z,5.10
2017-12-06T23:48:23.591Z,5.10
2017-12-06T23:50:51.079Z,5.00
2017-12-06T23:53:19.351Z,5.10
2017-12-06T23:55:46.831Z,5.00
2017-12-06T23:58:14.327Z,5.10
